createdAt,value
2022-10-28T00:00:45.027Z,75.98
2022-10-28T00:05:49.545Z,76.69
2022-10-28T00:10:54.748Z,75.92
2022-10-28T00:16:04.036Z,76.17
2022-10-28T00:21:11.444Z,76.08
2022-10-28T00:26:16.187Z,75.94
2022-10-28T00:31:21.098Z,76.27
2022-10-28T00:36:27.560Z,78.48
2022-10-28T00:41:31.777Z,80.90
2022-10-28T00:46:46.880Z,82.25
2022-10-28T00:51:55.005Z,82.78
2022-10-28T00:57:00.503Z,82.78
2022-10-28T01:02:03.538Z,83.24
2022-10-28T01:07:07.969Z,82.97
2022-10-28T01:12:21.230Z,82.54
2022-10-28T01:17:32.881Z,82.88
2022-10-28T01:22:42.413Z,82.51
2022-10-28T01:28:07.208Z,82.28
2022-10-28T01:33:19.304Z,82.47
2022-10-28T01:38:34.316Z,81.90
2022-10-28T01:43:47.231Z,81.70
2022-10-28T01:48:58.148Z,80.96
2022-10-28T01:54:04.731Z,81.13
2022-10-28T01:59:10.793Z,81.46
2022-10-28T02:04:15.277Z,80.79
2022-10-28T02:09:28.811Z,80.95
2022-10-28T02:14:49.344Z,81.25
2022-10-28T02:20:05.428Z,81.31
2022-10-28T02:25:14.293Z,80.51
2022-10-28T02:30:21.738Z,80.42
2022-10-28T02:35:30.669Z,80.13
2022-10-28T02:40:36.054Z,79.55
2022-10-28T02:45:42.529Z,79.33
2022-10-28T02:50:51.145Z,79.27
2022-10-28T02:55:56.572Z,78.83
2022-10-28T03:00:59.375Z,78.70
2022-10-28T03:06:03.616Z,78.13
2022-10-28T03:11:06.788Z,78.00
2022-10-28T03:16:09.819Z,77.86
2022-10-28T03:21:13.969Z,78.04
2022-10-28T03:26:16.830Z,78.71
2022-10-28T03:31:19.844Z,77.99
2022-10-28T03:36:24.019Z,78.01
2022-10-28T03:41:26.860Z,77.80
2022-10-28T03:46:32.248Z,77.75
2022-10-28T03:51:39.258Z,77.71
2022-10-28T03:56:42.054Z,78.13
2022-10-28T04:01:45.035Z,77.78
2022-10-28T04:06:49.246Z,77.72
2022-10-28T04:11:52.162Z,78.38
2022-10-28T04:16:55.010Z,78.49
2022-10-28T04:21:59.221Z,78.26
2022-10-28T04:27:01.960Z,78.80
2022-10-28T04:32:04.985Z,78.19
2022-10-28T04:37:09.156Z,78.42
2022-10-28T04:42:11.900Z,77.82
2022-10-28T04:47:14.637Z,77.82
2022-10-28T04:52:18.753Z,77.91
2022-10-28T04:57:21.570Z,77.54
2022-10-28T05:02:24.481Z,77.91
2022-10-28T05:07:28.862Z,77.66
2022-10-28T05:12:31.712Z,77.58
2022-10-28T05:17:34.604Z,77.57
2022-10-28T05:22:39.309Z,77.75
2022-10-28T05:27:42.133Z,78.24
2022-10-28T05:32:44.972Z,78.54
2022-10-28T05:37:49.281Z,78.11
2022-10-28T05:42:52.425Z,78.64
2022-10-28T05:47:55.799Z,78.65
2022-10-28T05:53:00.133Z,78.68
2022-10-28T05:58:03.682Z,78.72
2022-10-28T06:03:09.451Z,78.80
2022-10-28T06:08:14.208Z,78.66
2022-10-28T06:13:15.477Z,78.29
2022-10-28T06:18:19.021Z,78.41
2022-10-28T06:23:24.285Z,78.41
2022-10-28T06:28:28.025Z,78.04
2022-10-28T06:33:31.534Z,77.67
2022-10-28T06:38:35.862Z,77.40
2022-10-28T06:43:38.725Z,77.04
2022-10-28T06:48:43.131Z,76.46
2022-10-28T06:53:49.816Z,75.89
2022-10-28T06:58:53.019Z,74.73
2022-10-28T07:03:55.787Z,73.73
2022-10-28T07:08:59.927Z,72.74
2022-10-28T07:14:02.741Z,72.52
2022-10-28T07:19:05.690Z,73.00
2022-10-28T07:24:10.283Z,72.86
2022-10-28T07:29:13.123Z,72.57
2022-10-28T07:34:15.994Z,72.15
2022-10-28T07:39:20.592Z,72.32
2022-10-28T07:44:23.416Z,72.89
2022-10-28T07:49:26.263Z,70.33
2022-10-28T07:54:31.900Z,68.31
2022-10-28T07:59:34.709Z,66.78
2022-10-28T08:04:37.547Z,65.03
2022-10-28T08:09:42.200Z,64.47
2022-10-28T08:14:44.998Z,62.82
2022-10-28T08:19:48.294Z,62.19
2022-10-28T08:24:52.495Z,61.02
2022-10-28T08:29:55.263Z,60.24
2022-10-28T08:34:58.078Z,59.05
2022-10-28T08:40:02.217Z,57.52
2022-10-28T08:45:21.169Z,57.41
2022-10-28T08:50:25.922Z,55.68
2022-10-28T08:55:35.031Z,54.06
2022-10-28T09:00:37.884Z,53.21
2022-10-28T09:05:42.304Z,52.71
2022-10-28T09:11:04.534Z,52.01
2022-10-28T09:16:16.280Z,52.10
2022-10-28T09:21:24.750Z,51.57
2022-10-28T09:26:42.071Z,50.87
2022-10-28T09:31:48.408Z,50.69
2022-10-28T09:36:55.780Z,50.18
2022-10-28T09:42:01.887Z,50.89
2022-10-28T09:47:14.096Z,50.88
2022-10-28T09:52:20.982Z,51.40
2022-10-28T09:57:30.622Z,51.00
2022-10-28T10:02:36.022Z,51.32
2022-10-28T10:07:44.490Z,49.85
2022-10-28T10:12:52.393Z,48.95
2022-10-28T10:18:00.287Z,48.06
2022-10-28T10:23:03.040Z,47.60
2022-10-28T10:28:16.772Z,47.07
2022-10-28T10:33:22.735Z,46.26
2022-10-28T10:38:27.521Z,44.78
2022-10-28T10:43:36.430Z,43.51
2022-10-28T10:48:39.525Z,42.78
2022-10-28T10:53:42.522Z,42.40
2022-10-28T10:58:52.565Z,42.34
2022-10-28T11:03:59.955Z,42.53
2022-10-28T11:09:05.225Z,41.10
2022-10-28T11:14:24.292Z,43.06
2022-10-28T11:19:30.668Z,44.74
2022-10-28T11:24:47.904Z,44.75
2022-10-28T11:29:52.118Z,44.57
2022-10-28T11:35:24.221Z,43.69
2022-10-28T11:40:35.579Z,42.29
2022-10-28T11:45:48.682Z,43.48
2022-10-28T11:51:11.858Z,43.29
2022-10-28T11:56:28.255Z,43.45
2022-10-28T12:01:45.731Z,43.19
2022-10-28T12:07:05.994Z,42.13
2022-10-28T12:12:18.343Z,42.14
2022-10-28T12:17:29.790Z,42.33
2022-10-28T12:22:38.024Z,42.39
2022-10-28T12:27:44.685Z,42.65
2022-10-28T12:32:51.012Z,43.60
2022-10-28T12:38:02.050Z,44.01
2022-10-28T12:43:11.853Z,43.96
2022-10-28T12:48:22.551Z,45.13
2022-10-28T12:53:35.491Z,45.70
2022-10-28T12:58:43.058Z,44.09
2022-10-28T13:03:47.326Z,44.29
2022-10-28T13:09:17.692Z,43.69
2022-10-28T13:15:06.336Z,44.01
2022-10-28T13:20:20.461Z,44.83
2022-10-28T13:25:39.494Z,44.80
2022-10-28T13:30:54.070Z,44.12
2022-10-28T13:36:11.523Z,44.25
2022-10-28T13:41:47.941Z,44.09
2022-10-28T13:47:26.254Z,43.54
2022-10-28T13:52:30.374Z,43.52
2022-10-28T13:57:36.091Z,44.61
2022-10-28T14:02:40.864Z,44.26
2022-10-28T14:07:57.074Z,44.90
2022-10-28T14:13:02.770Z,45.04
2022-10-28T14:18:37.384Z,45.16
2022-10-28T14:24:16.517Z,45.65
2022-10-28T14:29:30.757Z,45.96
2022-10-28T14:34:41.884Z,45.96
2022-10-28T14:39:58.313Z,46.63
2022-10-28T14:45:22.464Z,47.72
2022-10-28T14:50:30.067Z,48.35
2022-10-28T14:55:34.995Z,48.20
2022-10-28T15:00:47.079Z,48.33
2022-10-28T15:05:49.895Z,49.15
2022-10-28T15:10:52.851Z,49.41
2022-10-28T15:15:59.435Z,50.23
2022-10-28T15:21:09.813Z,50.57
2022-10-28T15:26:14.363Z,50.66
2022-10-28T15:31:18.795Z,51.02
2022-10-28T15:36:23.346Z,51.66
2022-10-28T15:41:49.305Z,52.79
2022-10-28T15:46:54.369Z,52.91
2022-10-28T15:52:22.242Z,53.11
2022-10-28T15:57:27.711Z,52.35
2022-10-28T16:02:56.893Z,51.82
2022-10-28T16:08:00.495Z,51.91
2022-10-28T16:13:07.688Z,51.89
2022-10-28T16:18:14.987Z,52.46
2022-10-28T16:23:18.746Z,52.38
2022-10-28T16:28:25.754Z,52.45
2022-10-28T16:33:33.048Z,52.82
2022-10-28T16:38:36.036Z,52.97
2022-10-28T16:43:38.878Z,53.16
2022-10-28T16:48:43.025Z,53.52
2022-10-28T16:53:49.566Z,53.96
2022-10-28T16:58:52.337Z,54.44
2022-10-28T17:03:56.427Z,54.03
2022-10-28T17:09:03.563Z,55.04
2022-10-28T17:14:06.757Z,54.67
2022-10-28T17:19:10.884Z,55.31
2022-10-28T17:24:13.823Z,56.15
2022-10-28T17:29:16.556Z,56.03
2022-10-28T17:34:20.907Z,56.16
2022-10-28T17:39:26.422Z,57.13
2022-10-28T17:44:29.563Z,56.87
2022-10-28T17:49:36.312Z,56.98
2022-10-28T17:54:39.101Z,56.55
2022-10-28T17:59:41.821Z,57.33
2022-10-28T18:04:45.923Z,56.96
2022-10-28T18:09:48.739Z,56.84
2022-10-28T18:14:51.611Z,57.12
2022-10-28T18:19:57.658Z,57.25
2022-10-28T18:25:00.431Z,57.74
2022-10-28T18:30:03.174Z,57.65
2022-10-28T18:35:08.083Z,58.61
2022-10-28T18:40:11.811Z,58.46
2022-10-28T18:45:14.780Z,58.72
2022-10-28T18:50:19.032Z,59.78
2022-10-28T18:55:21.781Z,59.38
2022-10-28T19:00:24.687Z,60.18
2022-10-28T19:05:28.882Z,59.76
2022-10-28T19:10:31.707Z,60.14
2022-10-28T19:15:39.109Z,60.94
2022-10-28T19:20:43.257Z,60.53
2022-10-28T19:25:55.898Z,60.56
2022-10-28T19:31:04.300Z,60.80
2022-10-28T19:36:14.330Z,60.39
2022-10-28T19:41:20.376Z,60.56
2022-10-28T19:46:23.486Z,60.82
2022-10-28T19:51:29.422Z,60.85
2022-10-28T19:56:34.308Z,60.85
2022-10-28T20:01:39.278Z,61.33
2022-10-28T20:06:43.907Z,61.44
2022-10-28T20:11:46.663Z,61.34
2022-10-28T20:16:49.537Z,61.80
2022-10-28T20:21:53.748Z,61.92
2022-10-28T20:26:56.574Z,62.18
2022-10-28T20:31:59.393Z,62.71
2022-10-28T20:37:03.544Z,62.52
2022-10-28T20:42:06.371Z,62.68
2022-10-28T20:47:09.200Z,62.69
2022-10-28T20:52:16.551Z,63.06
2022-10-28T20:57:19.434Z,63.26
2022-10-28T21:02:22.333Z,63.46
2022-10-28T21:07:26.808Z,63.49
2022-10-28T21:12:29.567Z,63.50
2022-10-28T21:17:32.315Z,63.54
2022-10-28T21:22:36.600Z,63.61
2022-10-28T21:27:39.380Z,63.87
2022-10-28T21:32:42.142Z,63.96
2022-10-28T21:37:49.656Z,64.17
2022-10-28T21:42:52.554Z,64.64
2022-10-28T21:47:55.972Z,64.93
2022-10-28T21:53:03.835Z,64.87
2022-10-28T21:58:07.080Z,65.40
2022-10-28T22:03:10.363Z,65.58
2022-10-28T22:08:14.498Z,65.77
2022-10-28T22:13:17.316Z,65.99
2022-10-28T22:18:20.120Z,65.98
2022-10-28T22:23:24.581Z,66.17
2022-10-28T22:28:27.452Z,66.48
2022-10-28T22:33:30.293Z,67.16
2022-10-28T22:38:34.806Z,67.58
2022-10-28T22:43:37.702Z,67.44
2022-10-28T22:48:40.540Z,67.96
2022-10-28T22:53:45.327Z,67.73
2022-10-28T22:58:48.402Z,67.98
2022-10-28T23:03:52.990Z,68.07
2022-10-28T23:08:57.164Z,68.44
2022-10-28T23:13:59.962Z,68.61
2022-10-28T23:19:02.731Z,68.90
2022-10-28T23:24:07.755Z,68.30
2022-10-28T23:29:10.510Z,68.26
2022-10-28T23:34:13.272Z,68.28
2022-10-28T23:39:17.391Z,68.97
2022-10-28T23:44:20.111Z,68.55
2022-10-28T23:49:22.854Z,68.71
2022-10-28T23:54:27.151Z,68.91
2022-10-28T23:59:29.922Z,69.04
